57B weather

Islesboro Airport
Islesboro, Maine, United States

Public forecast

Using degrees Fahrenheit for public forecast. Weather courtesy of forecast.io.

Closest aviation weather report (METAR) to Islesboro Airport

Closest report is Knox County Regional Airport, 16.7 nm (30.9 km) SSW. Retrieved 2019/10/21 15:56 UTC (57 minutes ago):

KRKD 211556Z AUTO 08004KT 9SM FEW001 14/08 A3012 RMK AO2 SLP200 T01390083

Closest aviation forecast (TAF) to Islesboro Airport

Closest forecast is Knox County Regional Airport, 16.7 nm (30.9 km) SSW. Retrieved 2019/10/21 12:39 UTC (4 hours ago):

TAF KRKD 211137Z 2112/2212 02003KT 1/2SM FG SKC FM211300 02003KT 6SM BR FEW020 FM211600 05004KT P6SM FEW050 FM211700 10005KT P6SM FEW250